Accueil
METAR-TAF:

METAR-TAF

Aéroports :

Aérodrome de Gällivare

Gällivare, Suède

latitude: 67-09N, longitude: 020-39E, altitude: 359 m

Observation

Le bulletin a été fait il y a 19 minutes, à 14:20 UTC
Vent 13 kt de sud-ouest
Température 14°C
Humidité 44%
Pression 984 hPa
Visibilité 10 km ou plus
pas de nuages en-dessous de 1500 mètres et pas de cumulonimbus.

METAR: ESNG 201420Z 23013KT CAVOK 14/02 Q0984

Heure: 16:39 (14:39 UTC)

Prévision

Le bulletin a été fait il y a 1 heure et 9 minutes, à 13:30 UTC
Prévision valable du 20 à 14 UTC au 20 à 21 UTC
Vent 13 kt de sud-ouest
Visibilité 10 km ou plus
Quelques nuages à une hauteur de 4000 ft

TAF: ESNG 201330Z 2014/2021 23013KT 9999 FEW040

Observations et prévisions météorologiques de plus de 4000 aéroports (messages METAR et TAF).

Les stations disponibles sont représentées par des disques jaunes et rouges sur la carte.

Passer la souris dessus pour voir le nom de la station.

Cliquer dessus pour voir les observations et prévisions météorologiques.

Pour changer de carte: cliquez sur les boutons verts avec une croix noire pour zoomer, sur le bouton vert avec un tiret pour effectuer un zoom arrière, ou sur les flèches vertes pour les cartes adjacentes.


METAR-TAF: